createdAt,value
2023-02-27T00:02:01.948Z,60.72
2023-02-27T00:04:31.032Z,60.79
2023-02-27T00:06:58.363Z,61.09
2023-02-27T00:09:26.014Z,61.67
2023-02-27T00:11:53.340Z,61.94
2023-02-27T00:14:21.327Z,62.25
2023-02-27T00:16:51.598Z,62.74
2023-02-27T00:19:18.944Z,62.94
2023-02-27T00:21:48.741Z,61.37
2023-02-27T00:24:22.855Z,60.38
2023-02-27T00:26:50.765Z,60.00
2023-02-27T00:29:18.218Z,60.55
2023-02-27T00:31:45.616Z,60.92
2023-02-27T00:34:12.946Z,61.64
2023-02-27T00:36:40.154Z,62.04
2023-02-27T00:39:07.755Z,62.47
2023-02-27T00:41:35.095Z,62.79
2023-02-27T00:44:05.358Z,62.78
2023-02-27T00:46:35.299Z,61.27
2023-02-27T00:49:06.623Z,60.95
2023-02-27T00:51:34.097Z,60.76
2023-02-27T00:54:06.016Z,61.29
2023-02-27T00:56:34.764Z,61.46
2023-02-27T00:59:03.015Z,61.46
2023-02-27T01:01:30.422Z,61.81
2023-02-27T01:03:58.737Z,62.07
2023-02-27T01:06:26.598Z,62.34
2023-02-27T01:08:56.241Z,61.63
2023-02-27T01:11:28.936Z,60.67
2023-02-27T01:14:05.792Z,59.56
2023-02-27T01:16:36.263Z,59.49
2023-02-27T01:19:07.638Z,59.75
2023-02-27T01:21:36.907Z,59.94
2023-02-27T01:24:13.293Z,60.14
2023-02-27T01:26:41.494Z,60.54
2023-02-27T01:29:10.080Z,60.33
2023-02-27T01:31:39.757Z,60.73
2023-02-27T01:34:06.924Z,60.82
2023-02-27T01:36:35.928Z,60.93
2023-02-27T01:39:03.203Z,60.48
2023-02-27T01:41:31.752Z,58.82
2023-02-27T01:44:00.232Z,58.51
2023-02-27T01:46:28.531Z,58.62
2023-02-27T01:49:08.661Z,58.45
2023-02-27T01:51:56.784Z,58.88
2023-02-27T01:54:24.915Z,59.45
2023-02-27T01:56:52.898Z,60.04
2023-02-27T01:59:20.253Z,60.86
2023-02-27T02:01:50.550Z,60.96
2023-02-27T02:04:32.623Z,61.15
2023-02-27T02:07:06.140Z,62.10
2023-02-27T02:09:44.053Z,61.99
2023-02-27T02:12:13.546Z,60.15
2023-02-27T02:14:44.928Z,59.30
2023-02-27T02:17:51.703Z,59.23
2023-02-27T02:20:58.670Z,59.91
2023-02-27T02:23:52.599Z,60.50
2023-02-27T02:26:33.907Z,61.14
2023-02-27T02:29:37.991Z,61.45
2023-02-27T02:32:05.269Z,62.15
2023-02-27T02:35:15.156Z,62.36
2023-02-27T02:37:48.206Z,61.72
2023-02-27T02:40:30.408Z,60.44
2023-02-27T02:43:14.069Z,60.20
2023-02-27T02:45:53.853Z,59.96
2023-02-27T02:48:25.955Z,60.33
2023-02-27T02:51:20.283Z,60.49
2023-02-27T02:54:01.764Z,60.95
2023-02-27T02:56:52.857Z,61.06
2023-02-27T03:00:28.909Z,61.83
2023-02-27T03:03:16.570Z,62.47
2023-02-27T03:05:49.696Z,61.98
2023-02-27T03:08:20.383Z,59.79
2023-02-27T03:11:05.976Z,59.07
2023-02-27T03:13:43.930Z,59.14
2023-02-27T03:16:13.152Z,59.72
2023-02-27T03:18:54.781Z,59.75
2023-02-27T03:21:26.811Z,60.13
2023-02-27T03:23:54.803Z,60.43
2023-02-27T03:26:24.766Z,60.86
2023-02-27T03:28:58.431Z,61.14
2023-02-27T03:31:33.023Z,61.45
2023-02-27T03:34:23.489Z,61.90
2023-02-27T03:37:09.342Z,61.64
2023-02-27T03:39:49.443Z,59.78
2023-02-27T03:42:22.988Z,59.32
2023-02-27T03:45:26.297Z,59.32
2023-02-27T03:47:53.924Z,59.68
2023-02-27T03:50:22.524Z,60.46
2023-02-27T03:52:49.666Z,60.64
2023-02-27T03:55:19.725Z,61.25
2023-02-27T03:57:47.756Z,61.55
2023-02-27T04:00:22.848Z,61.84
2023-02-27T04:02:57.650Z,62.52
2023-02-27T04:05:29.124Z,62.17
2023-02-27T04:08:14.265Z,60.85
2023-02-27T04:10:51.660Z,60.17
2023-02-27T04:13:40.596Z,60.33
2023-02-27T04:16:17.058Z,60.96
2023-02-27T04:19:05.016Z,61.62
2023-02-27T04:22:04.531Z,62.49
2023-02-27T04:24:41.831Z,63.23
2023-02-27T04:27:29.328Z,63.77
2023-02-27T04:30:01.551Z,63.22
2023-02-27T04:33:12.781Z,62.22
2023-02-27T04:35:53.952Z,61.51
2023-02-27T04:39:12.499Z,62.26
2023-02-27T04:42:00.351Z,62.83
2023-02-27T04:44:27.726Z,63.06
2023-02-27T04:46:56.376Z,63.33
2023-02-27T04:49:28.490Z,64.12
2023-02-27T04:52:10.899Z,64.44
2023-02-27T04:55:06.673Z,62.85
2023-02-27T04:57:44.158Z,62.71
2023-02-27T05:00:12.514Z,62.88
2023-02-27T05:02:48.060Z,63.49
2023-02-27T05:05:22.258Z,63.76
2023-02-27T05:07:57.676Z,64.39
2023-02-27T05:10:57.735Z,65.28
2023-02-27T05:13:55.766Z,64.68
2023-02-27T05:16:27.269Z,63.32
2023-02-27T05:18:58.490Z,63.30
2023-02-27T05:21:39.195Z,63.65
2023-02-27T05:24:12.639Z,63.99
2023-02-27T05:27:17.713Z,64.54
2023-02-27T05:29:47.602Z,65.23
2023-02-27T05:32:23.159Z,65.70
2023-02-27T05:35:20.839Z,65.65
2023-02-27T05:37:59.578Z,63.99
2023-02-27T05:40:35.582Z,63.45
2023-02-27T05:43:19.799Z,63.65
2023-02-27T05:45:49.131Z,64.13
2023-02-27T05:48:25.267Z,64.83
2023-02-27T05:50:52.515Z,65.02
2023-02-27T05:53:21.406Z,65.72
2023-02-27T05:56:01.264Z,65.66
2023-02-27T05:58:50.261Z,64.03
2023-02-27T06:01:17.608Z,63.18
2023-02-27T06:03:44.575Z,62.98
2023-02-27T06:06:35.195Z,63.51
2023-02-27T06:09:04.063Z,64.01
2023-02-27T06:11:30.985Z,64.95
2023-02-27T06:13:57.958Z,65.05
2023-02-27T06:16:26.181Z,64.29
2023-02-27T06:18:56.904Z,62.81
2023-02-27T06:21:24.016Z,61.88
2023-02-27T06:23:51.274Z,61.97
2023-02-27T06:26:19.282Z,61.54
2023-02-27T06:28:46.503Z,62.49
2023-02-27T06:31:13.639Z,62.97
2023-02-27T06:33:41.180Z,63.35
2023-02-27T06:36:09.849Z,63.71
2023-02-27T06:38:40.952Z,63.33
2023-02-27T06:41:08.051Z,62.02
2023-02-27T06:43:37.180Z,61.49
2023-02-27T06:46:09.620Z,60.93
2023-02-27T06:48:38.280Z,61.56
2023-02-27T06:51:05.609Z,62.17
2023-02-27T06:53:33.588Z,62.48
2023-02-27T06:56:00.882Z,62.91
2023-02-27T06:58:28.133Z,63.18
2023-02-27T07:00:55.695Z,63.62
2023-02-27T07:03:22.748Z,63.11
2023-02-27T07:05:50.095Z,61.25
2023-02-27T07:08:20.711Z,60.37
2023-02-27T07:10:49.197Z,60.42
2023-02-27T07:13:19.639Z,60.00
2023-02-27T07:15:47.255Z,59.65
2023-02-27T07:18:14.826Z,60.42
2023-02-27T07:20:42.826Z,60.35
2023-02-27T07:23:13.185Z,60.65
2023-02-27T07:25:42.698Z,60.65
2023-02-27T07:28:13.167Z,61.36
2023-02-27T07:30:43.628Z,61.99
2023-02-27T07:33:13.518Z,61.42
2023-02-27T07:35:40.473Z,59.65
2023-02-27T07:38:07.806Z,56.61
2023-02-27T07:40:49.360Z,57.21
2023-02-27T07:43:17.325Z,57.34
2023-02-27T07:45:45.248Z,56.97
2023-02-27T07:48:12.718Z,58.44
2023-02-27T07:50:40.697Z,57.17
2023-02-27T07:53:08.126Z,57.79
2023-02-27T07:55:35.980Z,58.39
2023-02-27T07:58:03.544Z,58.88
2023-02-27T08:00:31.144Z,59.47
2023-02-27T08:02:58.653Z,58.82
2023-02-27T08:05:25.979Z,58.78
2023-02-27T08:07:53.176Z,58.63
2023-02-27T08:10:20.750Z,59.19
2023-02-27T08:12:51.531Z,59.34
2023-02-27T08:15:18.639Z,58.73
2023-02-27T08:17:46.053Z,58.48
2023-02-27T08:20:14.206Z,56.99
2023-02-27T08:22:42.069Z,55.95
2023-02-27T08:25:11.282Z,55.30
2023-02-27T08:27:38.539Z,55.63
2023-02-27T08:30:07.992Z,56.23
2023-02-27T08:32:35.423Z,57.06
2023-02-27T08:35:05.279Z,57.15
2023-02-27T08:37:33.250Z,56.61
2023-02-27T08:40:02.170Z,57.83
2023-02-27T08:42:31.946Z,57.68
2023-02-27T08:45:01.483Z,57.29
2023-02-27T08:47:29.458Z,58.73
2023-02-27T08:49:56.925Z,58.18
2023-02-27T08:52:25.082Z,58.71
2023-02-27T08:54:52.048Z,58.23
2023-02-27T08:57:19.172Z,59.34
2023-02-27T08:59:46.185Z,58.83
2023-02-27T09:02:13.974Z,58.96
2023-02-27T09:04:41.848Z,59.81
2023-02-27T09:07:09.499Z,59.59
2023-02-27T09:09:36.723Z,59.46
2023-02-27T09:12:04.650Z,59.60
2023-02-27T09:14:32.181Z,60.42
2023-02-27T09:16:59.213Z,60.08
2023-02-27T09:19:27.700Z,58.34
2023-02-27T09:21:55.338Z,56.37
2023-02-27T09:24:27.563Z,55.70
2023-02-27T09:26:55.279Z,56.58
2023-02-27T09:29:24.001Z,57.14
2023-02-27T09:31:51.916Z,58.40
2023-02-27T09:34:21.155Z,58.78
2023-02-27T09:36:48.354Z,57.54
2023-02-27T09:39:15.352Z,58.29
2023-02-27T09:41:49.300Z,58.72
2023-02-27T09:44:36.388Z,59.14
2023-02-27T09:47:33.859Z,58.09
2023-02-27T09:50:04.151Z,59.61
2023-02-27T09:52:33.371Z,59.57
2023-02-27T09:55:02.759Z,59.32
2023-02-27T09:58:01.662Z,60.29
2023-02-27T10:00:45.967Z,61.34
2023-02-27T10:03:28.548Z,60.06
2023-02-27T10:06:17.529Z,57.32
2023-02-27T10:08:56.137Z,57.00
2023-02-27T10:11:33.127Z,56.52
2023-02-27T10:14:10.067Z,56.19
2023-02-27T10:16:37.552Z,56.56
2023-02-27T10:19:14.590Z,57.49
2023-02-27T10:21:44.418Z,58.00
2023-02-27T10:24:40.963Z,58.08
2023-02-27T10:27:14.555Z,58.52
2023-02-27T10:29:41.717Z,58.52
2023-02-27T10:32:15.184Z,58.72
2023-02-27T10:34:43.914Z,58.51
2023-02-27T10:37:19.279Z,58.53
2023-02-27T10:39:54.138Z,58.71
2023-02-27T10:42:25.250Z,58.38
2023-02-27T10:44:53.817Z,58.38
2023-02-27T10:47:28.243Z,58.86
2023-02-27T10:50:00.665Z,59.95
2023-02-27T10:52:29.889Z,59.97
2023-02-27T10:54:56.891Z,59.81
2023-02-27T10:57:28.985Z,57.46
2023-02-27T10:59:59.035Z,56.77
2023-02-27T11:02:37.354Z,57.60
2023-02-27T11:05:24.349Z,58.50
2023-02-27T11:07:52.325Z,59.43
2023-02-27T11:10:30.798Z,60.23
2023-02-27T11:13:08.101Z,60.25
2023-02-27T11:15:38.004Z,59.91
2023-02-27T11:18:29.466Z,60.73
2023-02-27T11:21:12.037Z,60.20
2023-02-27T11:23:42.495Z,60.26
2023-02-27T11:26:16.380Z,59.81
2023-02-27T11:28:43.686Z,59.88
2023-02-27T11:31:19.625Z,59.81
2023-02-27T11:33:54.753Z,59.28
2023-02-27T11:36:37.809Z,59.63
2023-02-27T11:39:25.231Z,60.35
2023-02-27T11:41:53.000Z,59.16
2023-02-27T11:44:34.081Z,57.73
2023-02-27T11:47:40.004Z,56.01
2023-02-27T11:50:41.263Z,55.54
2023-02-27T11:53:25.927Z,55.58
2023-02-27T11:55:53.873Z,56.53
2023-02-27T11:58:23.142Z,56.55
2023-02-27T12:00:56.175Z,56.84
2023-02-27T12:03:40.806Z,57.11
2023-02-27T12:06:24.411Z,56.65
2023-02-27T12:08:54.948Z,57.43
2023-02-27T12:11:29.043Z,57.32
2023-02-27T12:14:02.518Z,57.57
2023-02-27T12:16:37.875Z,56.75
2023-02-27T12:19:38.886Z,56.72
2023-02-27T12:22:09.733Z,57.92
2023-02-27T12:24:42.626Z,58.28
2023-02-27T12:27:22.672Z,57.96
2023-02-27T12:30:02.797Z,57.60
2023-02-27T12:32:49.153Z,58.65
2023-02-27T12:35:34.970Z,58.25
2023-02-27T12:38:07.246Z,58.84
2023-02-27T12:40:54.926Z,58.52
2023-02-27T12:43:40.328Z,58.83
2023-02-27T12:46:27.750Z,59.48
2023-02-27T12:49:04.056Z,59.18
2023-02-27T12:51:52.833Z,59.54
2023-02-27T12:54:27.015Z,60.13
2023-02-27T12:56:57.869Z,61.17
2023-02-27T12:59:36.067Z,59.99
2023-02-27T13:02:18.816Z,58.23
2023-02-27T13:04:56.758Z,56.42
2023-02-27T13:07:39.094Z,57.00
2023-02-27T13:10:14.168Z,57.26
2023-02-27T13:13:09.384Z,57.47
2023-02-27T13:16:04.153Z,58.71
2023-02-27T13:18:49.047Z,58.44
2023-02-27T13:21:29.191Z,59.09
2023-02-27T13:24:18.120Z,58.90
2023-02-27T13:26:53.945Z,59.08
2023-02-27T13:29:21.921Z,59.06
2023-02-27T13:32:32.740Z,60.32
2023-02-27T13:35:15.858Z,60.51
2023-02-27T13:37:52.108Z,60.77
2023-02-27T13:40:30.880Z,59.93
2023-02-27T13:43:03.252Z,58.16
2023-02-27T13:45:48.035Z,56.66
2023-02-27T13:48:40.375Z,56.79
2023-02-27T13:51:10.873Z,56.70
2023-02-27T13:53:37.987Z,57.35
2023-02-27T13:56:23.334Z,58.24
2023-02-27T13:58:50.746Z,58.36
2023-02-27T14:01:23.792Z,58.63
2023-02-27T14:03:59.534Z,58.93
2023-02-27T14:06:26.728Z,59.82
2023-02-27T14:09:08.908Z,59.34
2023-02-27T14:11:42.329Z,59.18
2023-02-27T14:14:41.386Z,58.98
2023-02-27T14:17:10.720Z,59.76
2023-02-27T14:19:41.181Z,59.73
2023-02-27T14:22:11.139Z,58.74
2023-02-27T14:25:02.397Z,57.50
2023-02-27T14:27:32.140Z,56.95
2023-02-27T14:30:02.238Z,58.39
2023-02-27T14:32:32.835Z,57.85
2023-02-27T14:34:59.830Z,58.82
2023-02-27T14:37:27.155Z,58.87
2023-02-27T14:39:55.082Z,59.44
2023-02-27T14:42:36.770Z,59.75
2023-02-27T14:45:04.402Z,60.82
2023-02-27T14:47:36.508Z,61.23
2023-02-27T14:50:05.880Z,61.54
2023-02-27T14:52:41.260Z,61.64
2023-02-27T14:55:15.156Z,61.42
2023-02-27T14:57:53.784Z,59.31
2023-02-27T15:00:32.238Z,59.83
2023-02-27T15:02:59.667Z,58.46
2023-02-27T15:05:32.228Z,58.64
2023-02-27T15:08:01.449Z,59.45
2023-02-27T15:10:33.407Z,60.12
2023-02-27T15:13:01.049Z,60.82
2023-02-27T15:15:29.008Z,61.33
2023-02-27T15:17:56.245Z,61.84
2023-02-27T15:20:30.747Z,61.94
2023-02-27T15:22:59.872Z,61.95
2023-02-27T15:25:35.448Z,60.69
2023-02-27T15:28:08.401Z,58.80
2023-02-27T15:30:36.827Z,60.32
2023-02-27T15:33:05.208Z,60.94
2023-02-27T15:35:36.586Z,61.17
2023-02-27T15:38:03.779Z,61.40
2023-02-27T15:40:32.734Z,61.23
2023-02-27T15:43:00.500Z,61.31
2023-02-27T15:45:32.048Z,61.69
2023-02-27T15:47:59.225Z,62.50
2023-02-27T15:50:34.329Z,62.36
2023-02-27T15:53:11.815Z,60.88
2023-02-27T15:55:42.675Z,61.05
2023-02-27T15:58:32.791Z,61.34
2023-02-27T16:01:26.600Z,62.28
2023-02-27T16:04:07.754Z,62.91
2023-02-27T16:06:39.444Z,63.02
2023-02-27T16:09:08.114Z,63.27
2023-02-27T16:11:38.638Z,64.04
2023-02-27T16:14:08.606Z,63.87
2023-02-27T16:16:37.676Z,62.93
2023-02-27T16:19:27.295Z,61.90
2023-02-27T16:22:03.632Z,61.90
2023-02-27T16:24:32.120Z,62.15
2023-02-27T16:26:59.299Z,62.40
2023-02-27T16:29:36.345Z,62.82
2023-02-27T16:32:04.312Z,63.08
2023-02-27T16:34:46.333Z,63.48
2023-02-27T16:37:34.417Z,64.57
2023-02-27T16:40:16.888Z,63.72
2023-02-27T16:42:43.992Z,62.46
2023-02-27T16:45:20.318Z,61.97
2023-02-27T16:47:51.679Z,61.51
2023-02-27T16:50:22.767Z,61.82
2023-02-27T16:52:50.073Z,62.02
2023-02-27T16:55:21.602Z,62.43
2023-02-27T16:57:49.029Z,62.78
2023-02-27T17:00:17.383Z,63.00
2023-02-27T17:02:44.783Z,63.31
2023-02-27T17:05:12.026Z,63.31
2023-02-27T17:07:39.667Z,62.21
2023-02-27T17:10:11.615Z,61.09
2023-02-27T17:12:44.190Z,61.28
2023-02-27T17:15:11.499Z,61.60
2023-02-27T17:17:38.897Z,62.03
2023-02-27T17:20:07.394Z,62.47
2023-02-27T17:22:41.076Z,62.58
2023-02-27T17:25:08.884Z,62.95
2023-02-27T17:27:36.261Z,63.45
2023-02-27T17:30:04.171Z,63.86
2023-02-27T17:32:32.051Z,62.89
2023-02-27T17:34:59.373Z,61.80
2023-02-27T17:37:27.217Z,61.52
2023-02-27T17:39:54.892Z,61.87
2023-02-27T17:42:25.608Z,61.87
2023-02-27T17:44:52.594Z,62.48
2023-02-27T17:47:19.806Z,63.08
2023-02-27T17:49:47.098Z,63.48
2023-02-27T17:52:14.065Z,63.90
2023-02-27T17:54:41.067Z,64.11
2023-02-27T17:57:11.968Z,62.87
2023-02-27T17:59:40.409Z,61.79
2023-02-27T18:02:08.038Z,61.53
2023-02-27T18:04:35.694Z,62.03
2023-02-27T18:07:02.881Z,62.43
2023-02-27T18:09:30.215Z,63.25
2023-02-27T18:11:58.108Z,63.45
2023-02-27T18:14:26.879Z,63.99
2023-02-27T18:16:54.414Z,64.53
2023-02-27T18:19:25.107Z,64.40
2023-02-27T18:21:54.276Z,63.07
2023-02-27T18:24:21.621Z,61.89
2023-02-27T18:26:49.430Z,61.97
2023-02-27T18:29:18.051Z,62.37
2023-02-27T18:31:46.255Z,62.40
2023-02-27T18:34:14.240Z,62.86
2023-02-27T18:36:41.176Z,63.21
2023-02-27T18:39:09.068Z,64.23
2023-02-27T18:41:45.847Z,64.96
2023-02-27T18:44:12.883Z,64.55
2023-02-27T18:46:40.766Z,62.88
2023-02-27T18:49:09.820Z,62.53
2023-02-27T18:51:37.349Z,62.17
2023-02-27T18:54:05.239Z,62.86
2023-02-27T18:56:36.286Z,63.15
2023-02-27T18:59:05.371Z,63.56
2023-02-27T19:01:38.394Z,64.17
2023-02-27T19:04:07.402Z,64.61
2023-02-27T19:06:40.527Z,64.44
2023-02-27T19:09:08.752Z,63.38
2023-02-27T19:11:36.098Z,62.81
2023-02-27T19:14:05.058Z,62.58
2023-02-27T19:16:33.099Z,63.03
2023-02-27T19:19:01.963Z,63.53
2023-02-27T19:21:29.383Z,63.56
2023-02-27T19:23:57.876Z,63.87
2023-02-27T19:26:26.509Z,64.50
2023-02-27T19:28:54.264Z,64.53
2023-02-27T19:31:23.521Z,63.06
2023-02-27T19:33:50.783Z,62.80
2023-02-27T19:36:18.720Z,62.74
2023-02-27T19:38:46.109Z,62.61
2023-02-27T19:41:13.661Z,63.12
2023-02-27T19:43:41.436Z,63.67
2023-02-27T19:46:14.691Z,64.26
2023-02-27T19:48:43.717Z,64.74
2023-02-27T19:51:12.166Z,64.55
2023-02-27T19:53:40.451Z,63.50
2023-02-27T19:56:11.456Z,62.84
2023-02-27T19:58:40.261Z,62.58
2023-02-27T20:01:07.910Z,62.82
2023-02-27T20:03:36.479Z,63.43
2023-02-27T20:06:06.525Z,63.79
2023-02-27T20:08:37.616Z,64.14
2023-02-27T20:11:05.342Z,64.67
2023-02-27T20:13:32.808Z,64.86
2023-02-27T20:16:05.975Z,63.42
2023-02-27T20:18:33.949Z,63.02
2023-02-27T20:21:11.273Z,62.89
2023-02-27T20:23:41.244Z,62.93
2023-02-27T20:26:18.636Z,63.37
2023-02-27T20:28:46.521Z,63.66
2023-02-27T20:31:14.486Z,63.82
2023-02-27T20:33:42.146Z,64.21
2023-02-27T20:36:10.437Z,64.10
2023-02-27T20:38:39.192Z,63.02
2023-02-27T20:41:11.364Z,61.37
2023-02-27T20:43:39.740Z,61.58
2023-02-27T20:46:18.163Z,61.29
2023-02-27T20:48:45.688Z,62.37
2023-02-27T20:51:17.620Z,62.81
2023-02-27T20:53:46.965Z,63.50
2023-02-27T20:56:17.966Z,63.47
2023-02-27T20:58:45.256Z,63.92
2023-02-27T21:01:12.857Z,64.15
2023-02-27T21:03:40.871Z,62.19
2023-02-27T21:06:09.444Z,60.79
2023-02-27T21:08:42.078Z,61.24
2023-02-27T21:11:12.267Z,61.81
2023-02-27T21:13:39.761Z,62.45
2023-02-27T21:16:09.540Z,63.15
2023-02-27T21:18:39.929Z,63.81
2023-02-27T21:21:09.467Z,64.38
2023-02-27T21:23:43.018Z,64.27
2023-02-27T21:26:16.673Z,63.14
2023-02-27T21:28:47.915Z,62.65
2023-02-27T21:31:20.373Z,62.51
2023-02-27T21:33:47.701Z,62.70
2023-02-27T21:36:15.030Z,63.21
2023-02-27T21:39:04.725Z,63.82
2023-02-27T21:41:32.243Z,64.17
2023-02-27T21:44:04.356Z,64.58
2023-02-27T21:46:31.852Z,64.50
2023-02-27T21:48:59.032Z,62.98
2023-02-27T21:51:38.928Z,61.83
2023-02-27T21:54:12.993Z,62.15
2023-02-27T21:56:41.524Z,62.49
2023-02-27T21:59:09.301Z,62.90
2023-02-27T22:01:37.009Z,62.83
2023-02-27T22:04:04.345Z,63.17
2023-02-27T22:06:32.511Z,63.63
2023-02-27T22:09:01.662Z,64.38
2023-02-27T22:11:30.598Z,64.08
2023-02-27T22:13:58.326Z,62.44
2023-02-27T22:16:25.880Z,61.72
2023-02-27T22:18:52.946Z,62.13
2023-02-27T22:21:22.676Z,62.37
2023-02-27T22:23:50.201Z,62.90
2023-02-27T22:26:19.426Z,63.54
2023-02-27T22:28:47.319Z,64.04
2023-02-27T22:31:21.163Z,64.63
2023-02-27T22:33:52.416Z,65.26
2023-02-27T22:36:29.187Z,65.24
2023-02-27T22:38:56.603Z,63.57
2023-02-27T22:41:29.414Z,63.23
2023-02-27T22:43:57.706Z,62.77
2023-02-27T22:46:38.011Z,63.15
2023-02-27T22:49:14.750Z,63.44
2023-02-27T22:51:42.026Z,63.68
2023-02-27T22:54:10.068Z,64.02
2023-02-27T22:56:37.369Z,64.56
2023-02-27T22:59:09.349Z,64.62
2023-02-27T23:01:37.368Z,63.61
2023-02-27T23:04:06.896Z,63.16
2023-02-27T23:06:37.148Z,63.22
2023-02-27T23:09:06.672Z,63.37
2023-02-27T23:11:40.554Z,63.79
2023-02-27T23:14:11.251Z,64.27
2023-02-27T23:16:40.080Z,64.45
2023-02-27T23:19:07.587Z,64.92
2023-02-27T23:21:37.012Z,65.12
2023-02-27T23:24:22.522Z,64.29
2023-02-27T23:26:50.943Z,63.33
2023-02-27T23:29:19.620Z,63.34
2023-02-27T23:31:48.183Z,63.52
2023-02-27T23:34:18.183Z,63.86
2023-02-27T23:36:46.005Z,64.19
2023-02-27T23:39:13.053Z,64.74
2023-02-27T23:41:41.509Z,65.09
2023-02-27T23:44:27.921Z,65.20
2023-02-27T23:46:55.186Z,63.65
2023-02-27T23:49:22.360Z,63.63
2023-02-27T23:52:00.687Z,63.38
2023-02-27T23:54:28.297Z,63.67
2023-02-27T23:56:55.677Z,63.94
2023-02-27T23:59:23.352Z,64.64
